Gargrave, United Kingdom
Current Conditions -  °F | °C
As of 10:50 PM on Friday 28 Nov 2014 (Local Time) from EGNM Reporting Station
Light Rain Light Rain  
Wind Chill:   Ceiling: 200
Heat Index:   Visibility: 0.18mi
Dew Point:   Wind: 9mph
Humidity: 100%   Direction: 80°E
Pressure: 29.83"   Gusts: NA
Location:  53.98°N, 2.1°W
Report Text: EGNM 282250Z 08008KT 050V110 0300 R14/P1500 -RADZ FG SCT001 BKN002 08/08 Q1010
Loading
Personal Weather Stations






























Interactive Weather Map New forecast layout! Learn more

10-Day Weather Forecast

Advertisements
Track Severe Weather on mobile